Time;durP1;ratioP1;P1;durP2;ratioP2;P2;SDS_P1;SDS_P2;PMS_P1;PMS_P2;Temp;Humidity;BMP_temperature;BMP_pressure;BME280_temperature;BME280_humidity;BME280_pressure;Samples;Min_cycle;Max_cycle;Signal;HPM_P1;HPM_P2
2021/12/01 04:03:06;;;;;;;5.97;4.70;;;8.30;93.20;;;;;;5007174;28;20644;-49
2021/12/01 04:05:32;;;;;;;9.20;5.78;;;8.30;93.30;;;;;;5006778;28;20030;-52
2021/12/01 04:07:59;;;;;;;10.02;5.15;;;8.30;93.10;;;;;;5006719;28;20433;-52
2021/12/01 04:10:25;;;;;;;5.38;4.35;;;8.30;93.40;;;;;;5006455;28;20110;-49
2021/12/01 04:12:51;;;;;;;12.77;5.75;;;8.30;93.40;;;;;;5007019;28;20105;-49
2021/12/01 04:15:17;;;;;;;14.18;4.65;;;8.30;93.80;;;;;;5005166;28;20088;-49
2021/12/01 04:17:44;;;;;;;4.88;3.58;;;8.20;93.90;;;;;;5005656;28;20332;-52
2021/12/01 04:20:15;;;;;;;5.57;4.85;;;8.20;93.90;;;;;;5006642;28;20438;-49
2021/12/01 04:22:42;;;;;;;6.50;4.95;;;8.30;93.20;;;;;;5006342;28;20035;-49
2021/12/01 04:25:08;;;;;;;7.30;5.60;;;8.20;93.40;;;;;;5006285;28;20022;-49
2021/12/01 04:27:35;;;;;;;6.57;4.88;;;8.20;93.30;;;;;;5006537;28;20075;-50
2021/12/01 04:30:00;;;;;;;6.82;3.88;;;8.20;93.50;;;;;;5006274;28;20026;-48
2021/12/01 04:32:26;;;;;;;11.35;5.80;;;8.20;93.30;;;;;;5006445;28;20042;-51
2021/12/01 04:34:52;;;;;;;9.10;6.35;;;8.20;93.10;;;;;;5006400;28;20053;-51
2021/12/01 04:37:18;;;;;;;7.40;5.63;;;8.20;93.00;;;;;;5006098;28;20022;-50
2021/12/01 04:39:43;;;;;;;9.45;5.05;;;8.20;92.90;;;;;;5006248;28;20037;-49
2021/12/01 04:42:10;;;;;;;8.65;6.00;;;8.20;92.60;;;;;;5005932;28;20026;-49
2021/12/01 04:44:37;;;;;;;6.28;4.82;;;8.30;92.40;;;;;;5006107;28;20026;-49
2021/12/01 04:47:09;;;;;;;8.45;5.88;;;8.30;92.00;;;;;;5005985;28;20030;-50
2021/12/01 04:49:37;;;;;;;7.18;5.10;;;8.30;91.70;;;;;;5006040;28;20041;-55
2021/12/01 04:52:04;;;;;;;6.53;5.22;;;8.30;91.90;;;;;;5005819;28;20091;-50
2021/12/01 04:54:30;;;;;;;8.10;5.93;;;8.30;91.90;;;;;;5005724;28;20531;-48
2021/12/01 04:56:56;;;;;;;4.93;4.00;;;8.30;92.20;;;;;;5005884;28;20092;-50
2021/12/01 04:59:23;;;;;;;5.03;3.75;;;8.30;91.90;;;;;;5006185;28;20095;-50
2021/12/01 05:01:52;;;;;;;6.05;3.63;;;8.20;91.80;;;;;;5005539;28;20098;-53
2021/12/01 05:04:18;;;;;;;8.50;5.32;;;8.20;91.70;;;;;;5005738;28;20023;-54
2021/12/01 05:06:44;;;;;;;6.70;4.25;;;8.20;91.40;;;;;;5005802;28;20033;-51
2021/12/01 05:09:10;;;;;;;7.47;3.95;;;8.20;91.20;;;;;;5005884;28;20026;-48
2021/12/01 05:11:36;;;;;;;8.15;4.38;;;8.30;91.10;;;;;;5006190;28;20495;-49
2021/12/01 05:14:02;;;;;;;6.30;4.80;;;8.30;90.40;;;;;;4995046;28;20167;-48
2021/12/01 05:16:27;;;;;;;5.00;2.92;;;8.30;90.10;;;;;;4992841;28;20056;-49
2021/12/01 05:18:53;;;;;;;4.72;3.50;;;8.30;90.40;;;;;;4992527;28;20034;-49
2021/12/01 05:21:19;;;;;;;5.65;3.83;;;8.30;90.30;;;;;;4992528;28;20034;-50
2021/12/01 05:23:45;;;;;;;6.03;3.85;;;8.30;89.90;;;;;;4992666;28;20458;-50
2021/12/01 05:26:11;;;;;;;3.40;2.90;;;8.30;89.90;;;;;;4992270;28;20101;-51
2021/12/01 05:28:38;;;;;;;10.73;3.83;;;8.30;89.70;;;;;;4992459;28;20101;-50
2021/12/01 05:31:04;;;;;;;4.30;3.30;;;8.30;89.10;;;;;;4992652;28;20026;-49
2021/12/01 05:33:30;;;;;;;7.80;4.10;;;8.30;89.20;;;;;;4992421;28;20027;-51
2021/12/01 05:35:55;;;;;;;5.00;3.40;;;8.30;89.40;;;;;;4992373;28;20031;-51
2021/12/01 05:38:21;;;;;;;6.63;3.75;;;8.40;88.70;;;;;;4992662;28;20033;-46
2021/12/01 05:40:49;;;;;;;10.82;4.68;;;8.30;88.50;;;;;;4992403;28;20507;-49
2021/12/01 05:43:16;;;;;;;4.15;2.55;;;8.40;88.60;;;;;;4992062;28;20060;-48
2021/12/01 05:45:43;;;;;;;4.75;2.67;;;8.40;88.00;;;;;;4992161;28;20474;-47
2021/12/01 05:48:08;;;;;;;4.70;3.05;;;8.50;87.40;;;;;;4992087;28;20030;-48
2021/12/01 05:50:35;;;;;;;5.45;2.65;;;8.50;87.30;;;;;;4992387;28;20037;-48
2021/12/01 05:53:00;;;;;;;4.43;2.00;;;8.50;86.60;;;;;;4992279;28;20023;-50
2021/12/01 05:55:26;;;;;;;4.47;2.30;;;8.50;87.00;;;;;;4991891;28;20045;-49
2021/12/01 05:57:52;;;;;;;2.75;2.13;;;8.50;86.80;;;;;;4992036;28;20035;-50
2021/12/01 06:00:19;;;;;;;4.00;2.08;;;8.60;86.50;;;;;;4991808;28;20117;-48
2021/12/01 06:02:49;;;;;;;2.55;2.10;;;8.60;86.60;;;;;;4991697;28;20045;-50
2021/12/01 06:05:15;;;;;;;3.50;2.17;;;8.50;86.80;;;;;;4992198;28;20030;-49
2021/12/01 06:07:40;;;;;;;4.68;2.50;;;8.50;86.90;;;;;;4992127;28;20451;-49
2021/12/01 06:10:07;;;;;;;4.50;2.55;;;8.50;87.00;;;;;;4991748;28;20393;-47
2021/12/01 06:12:33;;;;;;;3.33;2.45;;;8.50;86.90;;;;;;4991890;28;20112;-49
2021/12/01 06:15:00;;;;;;;3.67;2.20;;;8.50;86.90;;;;;;4991809;28;20077;-51
2021/12/01 06:17:26;;;;;;;3.75;2.03;;;8.50;86.30;;;;;;4991843;28;20436;-49
2021/12/01 06:19:53;;;;;;;4.35;2.30;;;8.50;86.50;;;;;;4991497;28;20058;-48
2021/12/01 06:22:18;;;;;;;2.58;2.03;;;8.60;86.30;;;;;;4989929;28;20118;-49
2021/12/01 06:24:44;;;;;;;5.00;1.95;;;8.60;86.10;;;;;;4990280;28;20062;-48
2021/12/01 06:27:11;;;;;;;2.70;1.88;;;8.60;86.00;;;;;;4991442;28;20046;-47
2021/12/01 06:29:36;;;;;;;4.90;1.92;;;8.50;86.50;;;;;;4991545;28;20367;-48
2021/12/01 06:32:03;;;;;;;2.40;1.80;;;8.50;86.80;;;;;;4992255;28;20041;-48
2021/12/01 06:34:28;;;;;;;5.07;2.08;;;8.50;87.40;;;;;;4991253;28;20081;-48
2021/12/01 06:36:54;;;;;;;2.03;1.70;;;8.50;87.50;;;;;;4991140;28;20050;-48
2021/12/01 06:39:20;;;;;;;2.45;1.67;;;8.30;88.10;;;;;;4991071;28;20030;-51
2021/12/01 06:41:45;;;;;;;3.40;2.17;;;8.40;87.90;;;;;;4990866;28;20041;-47
2021/12/01 06:44:11;;;;;;;1.52;1.42;;;8.30;88.70;;;;;;4989140;28;20026;-49
2021/12/01 06:46:37;;;;;;;2.00;1.80;;;8.30;88.70;;;;;;4991188;28;20117;-48
2021/12/01 06:49:03;;;;;;;2.08;1.73;;;8.20;89.10;;;;;;4990846;28;20022;-48
2021/12/01 06:51:29;;;;;;;2.72;1.65;;;8.20;89.40;;;;;;4990844;28;20080;-53
2021/12/01 06:53:55;;;;;;;2.42;1.48;;;8.20;89.60;;;;;;4990713;28;20442;-47
2021/12/01 06:56:21;;;;;;;4.35;2.25;;;8.20;89.90;;;;;;4990706;28;20471;-47
2021/12/01 06:58:47;;;;;;;2.55;2.10;;;8.10;90.50;;;;;;4990522;28;20056;-47
2021/12/01 07:01:14;;;;;;;2.47;1.70;;;8.00;91.30;;;;;;4990412;28;20081;-50
2021/12/01 07:03:39;;;;;;;3.00;2.10;;;7.80;92.20;;;;;;4990632;28;20023;-47
2021/12/01 07:06:05;;;;;;;3.88;2.72;;;7.80;92.90;;;;;;4990490;28;20075;-48
2021/12/01 07:08:32;;;;;;;3.17;2.72;;;7.70;93.60;;;;;;4990867;28;20027;-47
2021/12/01 07:10:57;;;;;;;5.03;2.13;;;7.60;94.00;;;;;;4990909;28;20018;-48
2021/12/01 07:13:24;;;;;;;4.03;3.00;;;7.50;94.40;;;;;;4990903;28;20050;-50
2021/12/01 07:15:49;;;;;;;4.10;3.13;;;7.50;94.90;;;;;;4991396;28;20022;-50
2021/12/01 07:18:15;;;;;;;8.00;3.20;;;7.50;95.00;;;;;;4990858;28;20109;-47
2021/12/01 07:20:44;;;;;;;3.80;3.03;;;7.50;95.10;;;;;;4989726;28;20033;-48
2021/12/01 07:23:11;;;;;;;4.78;2.95;;;7.40;95.20;;;;;;4991114;28;20034;-49
2021/12/01 07:25:40;;;;;;;4.53;2.72;;;7.40;95.20;;;;;;4994225;28;20031;-49
2021/12/01 07:28:06;;;;;;;5.72;3.47;;;7.40;95.30;;;;;;4991967;28;20022;-48
2021/12/01 07:30:32;;;;;;;6.97;3.20;;;7.60;95.20;;;;;;4988724;28;20109;-48
2021/12/01 07:32:58;;;;;;;8.38;3.10;;;7.50;95.10;;;;;;4992162;28;20049;-48
2021/12/01 07:35:24;;;;;;;5.53;3.40;;;7.50;95.20;;;;;;4990819;28;20026;-48
2021/12/01 07:37:50;;;;;;;3.38;2.72;;;7.50;95.10;;;;;;4990155;28;20026;-48
2021/12/01 07:40:16;;;;;;;5.65;3.33;;;7.50;94.90;;;;;;4990406;28;20087;-50
2021/12/01 07:42:42;;;;;;;3.78;2.40;;;7.60;94.80;;;;;;4990095;28;20030;-49
2021/12/01 07:45:08;;;;;;;3.63;2.33;;;7.70;94.60;;;;;;4990382;28;20432;-49
2021/12/01 07:47:34;;;;;;;6.97;3.60;;;7.60;94.60;;;;;;4990034;28;20084;-52
2021/12/01 07:50:00;;;;;;;4.03;2.90;;;7.60;94.60;;;;;;4991930;28;20058;-51
2021/12/01 07:52:26;;;;;;;2.95;1.95;;;7.70;94.60;;;;;;4990653;28;20027;-49
2021/12/01 07:54:51;;;;;;;2.45;1.45;;;7.70;94.10;;;;;;4988642;28;20113;-48
2021/12/01 07:57:17;;;;;;;3.38;1.85;;;7.80;93.80;;;;;;4989103;28;20037;-48
2021/12/01 07:59:43;;;;;;;1.83;1.38;;;7.80;93.60;;;;;;4989984;28;20367;-47
2021/12/01 14:03:12;;;;;;;5.30;1.67;;;8.30;86.50;;;;;;5092539;28;20109;-49
2021/12/01 14:05:40;;;;;;;10.05;2.67;;;8.30;86.70;;;;;;5090928;28;20043;-48
2021/12/01 14:08:11;;;;;;;4.57;2.50;;;8.30;86.30;;;;;;5088920;28;20081;-52
2021/12/01 14:10:51;;;;;;;5.28;2.22;;;8.30;86.10;;;;;;5090110;28;20020;-49
2021/12/01 14:13:19;;;;;;;4.57;1.15;;;8.40;86.40;;;;;;5090234;28;20039;-52
2021/12/01 14:15:46;;;;;;;7.20;2.30;;;8.40;85.50;;;;;;5090263;28;20158;-51
2021/12/01 14:18:15;;;;;;;7.90;1.58;;;8.30;86.00;;;;;;5089772;28;20486;-50
2021/12/01 14:20:41;;;;;;;6.18;1.35;;;8.40;85.90;;;;;;5089984;28;20027;-52
2021/12/01 14:23:08;;;;;;;6.88;1.30;;;8.40;85.70;;;;;;5089852;28;20379;-50
2021/12/01 14:25:34;;;;;;;6.43;0.88;;;8.40;85.50;;;;;;5090015;28;20024;-53
2021/12/01 14:28:08;;;;;;;7.43;1.77;;;8.40;85.80;;;;;;5089680;28;20100;-50
2021/12/01 14:30:35;;;;;;;2.72;1.20;;;8.40;86.00;;;;;;5090108;28;20463;-50
2021/12/01 14:33:01;;;;;;;9.68;1.63;;;8.40;85.20;;;;;;5088851;28;20384;-52
2021/12/01 14:35:27;;;;;;;3.40;1.70;;;8.40;85.70;;;;;;5088030;28;20032;-50
2021/12/01 14:37:56;;;;;;;4.90;1.42;;;8.40;85.30;;;;;;5092076;28;20024;-52
2021/12/01 14:40:21;;;;;;;4.57;1.73;;;8.40;85.40;;;;;;5087595;28;20025;-51
2021/12/01 14:42:51;;;;;;;9.77;1.98;;;8.40;85.40;;;;;;5088761;28;20032;-52
2021/12/01 14:45:21;;;;;;;8.73;2.17;;;8.40;85.50;;;;;;5088801;28;20047;-49
2021/12/01 14:48:07;;;;;;;5.20;1.60;;;8.40;86.00;;;;;;5089069;28;20103;-49
2021/12/01 14:50:34;;;;;;;2.85;1.15;;;8.30;86.00;;;;;;5089076;28;20036;-48
2021/12/01 14:53:04;;;;;;;5.35;1.98;;;8.30;86.30;;;;;;5088200;28;20032;-49
2021/12/01 14:55:35;;;;;;;4.53;1.45;;;8.30;86.40;;;;;;5088651;28;20028;-51
2021/12/01 14:58:01;;;;;;;5.38;2.15;;;8.30;86.50;;;;;;5089118;28;20082;-51
2021/12/01 15:00:30;;;;;;;4.70;1.55;;;8.30;86.40;;;;;;5088762;28;20060;-48
2021/12/01 15:03:13;;;;;;;2.90;1.83;;;8.30;86.40;;;;;;5088098;28;20040;-52
2021/12/01 15:05:54;;;;;;;6.55;1.85;;;8.30;86.80;;;;;;5088669;28;20024;-51
2021/12/01 15:08:29;;;;;;;5.30;1.80;;;8.30;86.90;;;;;;5089115;28;20372;-47
2021/12/01 15:11:06;;;;;;;8.90;1.70;;;8.30;86.70;;;;;;5089358;28;20468;-50
2021/12/01 15:13:39;;;;;;;5.82;1.60;;;8.30;86.70;;;;;;5082166;28;20020;-49
2021/12/01 15:16:18;;;;;;;8.02;1.73;;;8.30;86.60;;;;;;5077853;28;20454;-51
2021/12/01 15:18:43;;;;;;;6.55;1.90;;;8.20;86.80;;;;;;5075637;28;20021;-50
2021/12/01 15:21:24;;;;;;;6.30;1.85;;;8.30;86.60;;;;;;5075286;28;20032;-51
2021/12/01 15:23:59;;;;;;;3.67;1.67;;;8.20;86.90;;;;;;5074914;28;20024;-49
2021/12/01 15:26:35;;;;;;;10.52;2.90;;;8.20;86.50;;;;;;5075653;28;20036;-50
2021/12/01 15:29:07;;;;;;;16.98;3.40;;;8.20;86.90;;;;;;5075055;28;20206;-51
2021/12/01 15:31:35;;;;;;;1.70;1.50;;;8.20;86.90;;;;;;5075125;28;20484;-50
2021/12/01 15:34:04;;;;;;;3.63;1.85;;;8.20;86.20;;;;;;5075035;28;20025;-49
2021/12/01 15:36:30;;;;;;;3.97;2.00;;;8.20;86.50;;;;;;5075220;28;20147;-50
2021/12/01 15:38:56;;;;;;;3.70;2.15;;;8.20;86.30;;;;;;5076250;28;20032;-53
2021/12/01 15:41:23;;;;;;;11.77;2.33;;;8.20;86.50;;;;;;5076498;28;20021;-49
2021/12/01 15:43:49;;;;;;;4.85;2.88;;;8.20;86.70;;;;;;5076255;28;20017;-50
2021/12/01 15:46:16;;;;;;;6.63;2.30;;;8.00;87.30;;;;;;5075377;28;20095;-50
2021/12/01 15:48:42;;;;;;;9.57;3.00;;;8.10;87.20;;;;;;5075315;28;20082;-50
2021/12/01 15:51:07;;;;;;;4.07;2.67;;;8.10;87.20;;;;;;5074893;28;20032;-52
2021/12/01 15:53:33;;;;;;;4.35;2.50;;;8.10;87.40;;;;;;5075570;28;20033;-49
2021/12/01 15:56:00;;;;;;;4.78;2.17;;;8.20;86.90;;;;;;5074990;28;20380;-48
2021/12/01 15:58:27;;;;;;;8.35;2.45;;;8.20;86.90;;;;;;5074990;28;20035;-49
2021/12/01 16:00:56;;;;;;;8.32;2.17;;;8.20;87.10;;;;;;5074617;28;20115;-51
2021/12/01 16:03:23;;;;;;;11.85;2.38;;;8.20;86.90;;;;;;5075558;28;20043;-51
2021/12/01 16:05:48;;;;;;;12.07;2.38;;;8.30;87.10;;;;;;5074348;28;20071;-49
2021/12/01 16:08:14;;;;;;;7.15;2.80;;;8.20;86.90;;;;;;5074035;28;20052;-52
2021/12/01 16:10:41;;;;;;;10.55;2.70;;;8.20;87.00;;;;;;5074515;28;20428;-51
2021/12/01 16:13:09;;;;;;;11.25;4.30;;;8.20;87.10;;;;;;5074129;28;20021;-50
2021/12/01 16:15:35;;;;;;;15.38;4.25;;;8.20;87.50;;;;;;5074174;28;20109;-51
2021/12/01 16:18:02;;;;;;;4.15;2.33;;;8.10;87.90;;;;;;5073245;28;20024;-49
2021/12/01 16:20:29;;;;;;;6.68;2.45;;;8.10;88.20;;;;;;5074078;28;20096;-52
2021/12/01 16:22:55;;;;;;;9.23;3.15;;;8.10;88.20;;;;;;5073775;28;20028;-50
2021/12/01 16:25:22;;;;;;;6.72;2.15;;;8.10;88.60;;;;;;5072829;28;20027;-50
2021/12/01 16:27:49;;;;;;;7.93;2.47;;;8.10;88.50;;;;;;5074034;28;20020;-50
2021/12/01 16:30:26;;;;;;;8.15;1.80;;;8.00;89.70;;;;;;5073683;28;20033;-51
2021/12/01 16:32:55;;;;;;;4.85;1.20;;;7.20;87.10;;;;;;5073922;28;20032;-49
2021/12/01 16:35:24;;;;;;;7.30;1.23;;;6.70;87.90;;;;;;5073627;28;20036;-48
2021/12/01 16:37:52;;;;;;;8.95;1.17;;;6.50;89.40;;;;;;5073896;28;20031;-49
2021/12/01 16:40:23;;;;;;;6.70;1.23;;;6.50;90.40;;;;;;5073591;28;20105;-49
2021/12/01 16:42:52;;;;;;;3.75;1.45;;;6.40;91.10;;;;;;5072176;28;20031;-48
2021/12/01 16:45:18;;;;;;;4.28;1.05;;;6.40;91.20;;;;;;5072222;28;20020;-49
2021/12/01 16:47:44;;;;;;;3.70;1.33;;;6.30;90.80;;;;;;5073538;28;20103;-51
2021/12/01 16:50:11;;;;;;;5.63;0.95;;;6.40;91.10;;;;;;5074041;28;20074;-49
2021/12/01 16:52:36;;;;;;;2.85;1.23;;;6.40;90.90;;;;;;5073415;28;20059;-48
2021/12/01 16:55:05;;;;;;;2.70;0.80;;;6.50;90.70;;;;;;5073583;28;20028;-49
2021/12/01 16:57:31;;;;;;;6.93;1.38;;;6.60;90.50;;;;;;5073244;28;20046;-49
2021/12/01 16:59:57;;;;;;;1.58;1.25;;;6.50;90.90;;;;;;5073190;28;20052;-52
2021/12/01 17:02:22;;;;;;;8.20;1.50;;;6.50;91.30;;;;;;5072896;28;20048;-49
2021/12/01 17:04:52;;;;;;;2.42;1.00;;;6.60;91.30;;;;;;5073084;28;20047;-49
2021/12/01 17:09:49;;;;;;;7.68;1.48;;;6.80;90.40;;;;;;5073347;28;20159;-48
2021/12/01 17:12:17;;;;;;;6.50;1.80;;;6.80;90.70;;;;;;5072647;28;20032;-50
2021/12/01 17:14:43;;;;;;;3.88;1.30;;;6.80;91.10;;;;;;5073880;28;20128;-48
2021/12/01 17:17:10;;;;;;;9.07;1.38;;;7.00;90.50;;;;;;5071081;28;20103;-48
2021/12/01 17:19:37;;;;;;;5.95;1.73;;;7.10;89.90;;;;;;5071334;28;20275;-49
2021/12/01 17:22:04;;;;;;;5.53;2.55;;;7.20;89.80;;;;;;5072779;28;20037;-53
2021/12/01 17:24:30;;;;;;;9.60;1.75;;;7.20;89.90;;;;;;5073261;28;20111;-49
2021/12/01 17:26:57;;;;;;;6.70;1.73;;;7.30;90.10;;;;;;5073709;28;20096;-47
2021/12/01 17:29:25;;;;;;;9.52;1.70;;;7.20;90.10;;;;;;5073033;28;20033;-52
2021/12/01 17:32:05;;;;;;;6.50;1.85;;;7.20;89.80;;;;;;5072795;28;20103;-51
2021/12/01 17:34:35;;;;;;;11.52;2.10;;;7.10;89.80;;;;;;5073030;28;20024;-51
2021/12/01 17:37:03;;;;;;;10.40;2.25;;;7.20;89.60;;;;;;5072851;28;20028;-51
2021/12/01 17:39:30;;;;;;;7.93;2.15;;;7.10;89.20;;;;;;5075597;28;20024;-53
2021/12/01 17:41:56;;;;;;;16.17;1.98;;;7.10;88.90;;;;;;5072670;28;20032;-51
2021/12/01 17:44:22;;;;;;;4.97;1.73;;;7.10;88.90;;;;;;5073467;28;20127;-51
2021/12/01 17:46:47;;;;;;;7.75;1.83;;;7.10;88.90;;;;;;5072923;28;20052;-49
2021/12/01 17:49:13;;;;;;;16.48;2.78;;;7.10;88.40;;;;;;5072652;28;20465;-50
2021/12/01 17:51:39;;;;;;;5.75;2.22;;;7.10;88.20;;;;;;5073320;28;20167;-49
2021/12/01 17:54:05;;;;;;;10.88;1.90;;;7.20;87.90;;;;;;5073252;28;20103;-48
2021/12/01 17:56:30;;;;;;;5.43;1.67;;;7.20;88.30;;;;;;5071374;28;20317;-51
2021/12/01 17:58:56;;;;;;;7.10;2.08;;;7.10;87.60;;;;;;5073174;28;20349;-49
2021/12/01 18:01:22;;;;;;;5.55;1.88;;;7.10;87.10;;;;;;5072550;28;20043;-49
2021/12/01 18:03:49;;;;;;;8.15;1.77;;;7.10;86.60;;;;;;5072413;28;20101;-52
2021/12/01 18:06:16;;;;;;;7.28;2.22;;;7.10;86.60;;;;;;5072935;28;20495;-52
2021/12/01 18:08:44;;;;;;;9.43;3.33;;;7.10;86.50;;;;;;5072767;28;20452;-50
2021/12/01 18:11:10;;;;;;;12.68;2.28;;;7.00;87.30;;;;;;5072304;28;20108;-50
2021/12/01 18:13:37;;;;;;;5.13;1.25;;;6.90;87.60;;;;;;5072537;28;20182;-50
2021/12/01 18:16:04;;;;;;;8.77;1.55;;;6.90;87.60;;;;;;5072542;28;20116;-49
2021/12/01 18:18:30;;;;;;;19.98;2.80;;;6.90;87.80;;;;;;5072601;28;20036;-52
2021/12/01 18:20:57;;;;;;;19.92;3.88;;;6.90;87.70;;;;;;5071615;28;20064;-53
2021/12/01 18:23:23;;;;;;;10.07;2.10;;;6.90;87.50;;;;;;5072646;28;20024;-50
2021/12/01 18:25:52;;;;;;;18.65;2.53;;;6.90;87.40;;;;;;5071162;28;20024;-50
2021/12/01 18:28:18;;;;;;;5.70;1.63;;;6.90;87.80;;;;;;5072245;28;20066;-50
2021/12/01 18:30:45;;;;;;;7.85;1.85;;;6.80;88.10;;;;;;5070866;28;20028;-50
2021/12/01 18:33:10;;;;;;;10.90;2.42;;;6.80;88.40;;;;;;5070998;28;20450;-49
2021/12/01 18:35:37;;;;;;;10.05;3.63;;;6.70;89.10;;;;;;5072435;28;20071;-50
2021/12/01 18:38:04;;;;;;;5.47;1.88;;;6.60;89.20;;;;;;5070900;28;20032;-50
2021/12/01 18:40:31;;;;;;;7.32;2.45;;;6.50;89.40;;;;;;5070950;28;20028;-52
2021/12/01 18:42:57;;;;;;;12.80;2.33;;;6.50;89.70;;;;;;5072785;28;20024;-49
2021/12/01 18:45:23;;;;;;;5.85;1.83;;;6.40;89.90;;;;;;5072693;28;20017;-49
2021/12/01 18:47:53;;;;;;;11.40;3.92;;;6.40;90.10;;;;;;5071698;28;20025;-51
2021/12/01 18:50:20;;;;;;;7.03;1.90;;;6.30;90.20;;;;;;5074899;28;20465;-53
2021/12/01 18:52:47;;;;;;;13.90;3.63;;;6.30;90.30;;;;;;5075942;28;20032;-51
2021/12/01 18:55:14;;;;;;;6.57;1.83;;;6.30;90.00;;;;;;5076353;28;20027;-50
2021/12/01 18:57:41;;;;;;;7.20;1.42;;;6.20;89.90;;;;;;5076262;28;20037;-51
2021/12/01 19:00:10;;;;;;;12.07;1.80;;;6.20;90.00;;;;;;5074727;28;20028;-50
2021/12/01 19:02:38;;;;;;;16.10;2.53;;;6.20;89.40;;;;;;5074363;28;20114;-47
2021/12/01 19:05:06;;;;;;;4.82;1.90;;;6.20;89.00;;;;;;5076027;28;20107;-49
2021/12/01 19:07:31;;;;;;;8.60;2.50;;;6.20;89.00;;;;;;5076063;28;20024;-49
2021/12/01 19:09:57;;;;;;;13.93;1.90;;;6.10;89.00;;;;;;5075471;28;20420;-53
2021/12/01 19:12:24;;;;;;;8.23;2.83;;;6.10;89.40;;;;;;5075246;28;20056;-49
2021/12/01 19:14:49;;;;;;;12.75;1.92;;;6.10;89.30;;;;;;5075743;28;20074;-49
2021/12/01 19:17:16;;;;;;;6.75;2.15;;;6.00;89.30;;;;;;5075193;28;20036;-49
2021/12/01 19:19:42;;;;;;;13.40;3.75;;;6.00;88.60;;;;;;5075751;28;20480;-55
2021/12/01 19:22:08;;;;;;;11.43;2.10;;;6.10;88.20;;;;;;5075596;28;20158;-39
2021/12/01 19:24:34;;;;;;;5.30;1.33;;;6.00;88.40;;;;;;5075658;28;20025;-40
2021/12/01 19:27:00;;;;;;;13.45;2.10;;;6.00;88.30;;;;;;5075532;28;20021;-40
2021/12/01 19:29:26;;;;;;;3.97;2.05;;;5.90;88.80;;;;;;5057380;28;20206;-38
2021/12/01 19:31:56;;;;;;;5.25;1.65;;;5.90;88.90;;;;;;5075022;28;20104;-39
2021/12/01 19:34:22;;;;;;;16.20;2.35;;;5.90;88.70;;;;;;5075008;28;20025;-39
2021/12/01 19:36:48;;;;;;;13.63;2.03;;;5.80;88.90;;;;;;5073678;28;20033;-38
2021/12/01 19:39:13;;;;;;;13.93;3.53;;;5.80;89.10;;;;;;5073731;28;20530;-39
2021/12/01 19:41:39;;;;;;;9.55;2.33;;;5.80;89.00;;;;;;5075032;28;20031;-40
2021/12/01 19:44:10;;;;;;;16.85;2.95;;;5.80;89.30;;;;;;5075045;28;20020;-38
2021/12/01 19:46:36;;;;;;;6.97;1.90;;;5.80;89.50;;;;;;5075005;28;20020;-38
2021/12/01 19:49:03;;;;;;;12.35;2.40;;;5.80;89.60;;;;;;5074988;28;20020;-39
2021/12/01 19:51:29;;;;;;;8.38;2.92;;;5.80;89.70;;;;;;5075250;28;20426;-39
2021/12/01 19:53:55;;;;;;;7.28;1.90;;;5.80;90.10;;;;;;5074668;28;20024;-38
2021/12/01 19:56:21;;;;;;;10.52;2.40;;;5.80;90.30;;;;;;5075681;28;20489;-39
2021/12/01 19:58:51;;;;;;;15.82;2.97;;;5.80;90.30;;;;;;5074364;28;20032;-40
2021/12/01 20:01:18;;;;;;;15.27;2.40;;;5.80;90.50;;;;;;5074273;28;20098;-38
2021/12/01 20:03:45;;;;;;;9.73;2.08;;;5.80;90.50;;;;;;5074581;28;20070;-38
2021/12/01 20:06:13;;;;;;;10.82;2.75;;;5.80;90.20;;;;;;5074660;28;20146;-39
2021/12/01 20:08:43;;;;;;;14.50;3.03;;;5.80;90.50;;;;;;5074859;28;20021;-39
2021/12/01 20:11:09;;;;;;;23.80;5.40;;;5.70;90.30;;;;;;5074894;28;20028;-40
2021/12/01 20:13:37;;;;;;;13.10;3.22;;;5.70;90.50;;;;;;5074831;28;20031;-39
2021/12/01 20:16:09;;;;;;;8.40;3.03;;;5.70;89.70;;;;;;5074574;28;20030;-38
2021/12/01 20:18:36;;;;;;;13.45;2.38;;;5.70;89.90;;;;;;5075081;28;20472;-38
2021/12/01 20:21:04;;;;;;;14.13;4.05;;;5.70;89.90;;;;;;5073123;28;20469;-38
2021/12/01 20:23:30;;;;;;;11.30;2.25;;;5.60;89.70;;;;;;5074589;28;20025;-38
2021/12/01 20:25:57;;;;;;;7.63;1.55;;;5.60;88.90;;;;;;5074619;28;20100;-39
2021/12/01 20:28:23;;;;;;;5.88;2.85;;;5.70;88.10;;;;;;5074710;28;20024;-40
2021/12/01 20:30:50;;;;;;;10.95;3.80;;;5.80;88.10;;;;;;5074269;28;20376;-39
2021/12/01 20:33:17;;;;;;;16.88;2.30;;;5.70;87.30;;;;;;5074331;28;20064;-39
2021/12/01 20:35:47;;;;;;;8.63;2.03;;;5.80;86.40;;;;;;5074366;28;20103;-38
2021/12/01 20:38:14;;;;;;;;;;;5.80;86.60;;;;;;5074652;28;20020;-38
2021/12/01 20:40:40;;;;;;;12.55;3.60;;;5.70;86.70;;;;;;5074251;28;19919;-38
2021/12/01 20:43:06;;;;;;;7.65;2.65;;;5.70;86.40;;;;;;5074163;28;20418;-39
2021/12/01 20:46:04;;;;;;;9.70;2.13;;;5.70;86.50;;;;;;5073239;28;20017;-39
2021/12/01 21:01:40;;;;;;;9.65;1.98;;;5.50;86.50;;;;;;5073415;28;20040;-39
2021/12/01 21:04:15;;;;;;;8.07;1.85;;;5.50;86.50;;;;;;5073767;28;20036;-39
2021/12/01 21:06:44;;;;;;;18.30;3.25;;;5.40;86.70;;;;;;5073898;28;20159;-39
2021/12/01 21:09:21;;;;;;;6.40;1.60;;;5.30;86.90;;;;;;5073321;28;20021;-40
2021/12/01 21:11:50;;;;;;;12.27;2.25;;;5.30;87.00;;;;;;5073055;28;20036;-39
2021/12/01 21:14:16;;;;;;;8.93;1.52;;;5.30;87.20;;;;;;5073344;28;20035;-38
2021/12/01 21:16:43;;;;;;;12.02;1.95;;;5.30;87.40;;;;;;5073280;28;20021;-38
2021/12/01 21:19:11;;;;;;;13.70;3.58;;;5.30;87.50;;;;;;5073513;28;20056;-38
2021/12/01 21:21:39;;;;;;;7.15;1.60;;;5.30;87.60;;;;;;5073275;28;20028;-39
2021/12/01 21:24:06;;;;;;;10.52;1.35;;;5.30;87.20;;;;;;5073300;28;20028;-39
2021/12/01 21:26:35;;;;;;;8.77;1.52;;;5.30;87.10;;;;;;5073499;28;20024;-39
2021/12/01 21:29:04;;;;;;;11.23;1.73;;;5.30;87.20;;;;;;5073206;28;20020;-38
2021/12/01 21:31:33;;;;;;;6.72;2.42;;;5.30;87.20;;;;;;5073189;28;20028;-38
2021/12/01 21:33:59;;;;;;;7.47;1.88;;;5.30;87.20;;;;;;5072832;28;20138;-38
2021/12/01 21:36:28;;;;;;;12.45;3.00;;;5.20;87.30;;;;;;5073265;28;20036;-45
2021/12/01 21:38:55;;;;;;;14.70;3.15;;;5.20;87.40;;;;;;5072971;28;20103;-38
2021/12/01 21:41:23;;;;;;;14.75;1.73;;;5.20;87.40;;;;;;5073125;28;20028;-38
2021/12/01 21:43:50;;;;;;;9.82;2.50;;;5.20;87.10;;;;;;5073043;28;20487;-38
2021/12/01 21:46:17;;;;;;;7.20;2.50;;;5.20;87.10;;;;;;5073060;28;20029;-38
2021/12/01 21:48:43;;;;;;;4.53;1.60;;;5.20;87.20;;;;;;5071936;28;20017;-38
2021/12/01 21:51:12;;;;;;;6.10;1.63;;;5.20;86.90;;;;;;5071865;28;20056;-39
2021/12/01 21:53:41;;;;;;;7.75;1.48;;;5.30;86.80;;;;;;5071934;28;20016;-39
2021/12/01 21:56:09;;;;;;;5.43;1.80;;;5.30;86.70;;;;;;5073782;28;20025;-39
2021/12/01 21:58:35;;;;;;;7.15;1.98;;;5.30;86.90;;;;;;5071749;28;20052;-38
2021/12/01 22:01:04;;;;;;;11.57;2.38;;;5.30;87.10;;;;;;5072264;28;20040;-38
2021/12/01 22:03:30;;;;;;;7.45;2.20;;;5.30;87.30;;;;;;5072781;28;20027;-39
2021/12/01 22:06:01;;;;;;;11.20;2.42;;;5.30;87.70;;;;;;5072924;28;20381;-38
2021/12/01 22:08:27;;;;;;;12.55;2.67;;;5.20;88.20;;;;;;5072545;28;20059;-39
2021/12/01 22:10:54;;;;;;;6.78;1.80;;;5.10;88.60;;;;;;5072603;28;20028;-38
2021/12/01 22:13:20;;;;;;;15.18;2.50;;;5.10;88.70;;;;;;5072718;28;20059;-38
2021/12/01 22:15:47;;;;;;;16.13;2.95;;;5.10;88.90;;;;;;5072529;28;20492;-38
2021/12/01 22:18:14;;;;;;;15.13;3.00;;;5.10;89.10;;;;;;5072786;28;20491;-38
2021/12/01 22:20:42;;;;;;;14.20;2.75;;;5.00;89.20;;;;;;5072445;28;20048;-39
2021/12/01 22:23:10;;;;;;;6.65;2.50;;;5.00;89.20;;;;;;5073397;28;20035;-38
2021/12/01 22:25:38;;;;;;;16.38;3.08;;;5.10;88.90;;;;;;5076762;28;20059;-38
2021/12/01 22:28:07;;;;;;;8.30;2.13;;;5.10;88.80;;;;;;5076729;28;20055;-38
2021/12/01 22:30:38;;;;;;;5.68;2.05;;;5.20;88.60;;;;;;5076691;28;20028;-38
2021/12/01 22:33:04;;;;;;;9.95;3.22;;;5.20;88.60;;;;;;5076647;28;20107;-39
2021/12/01 22:35:32;;;;;;;9.35;1.70;;;5.20;88.60;;;;;;5076091;28;20060;-39
2021/12/01 22:37:59;;;;;;;19.17;3.25;;;5.30;88.20;;;;;;5076473;28;20028;-39
2021/12/01 22:40:28;;;;;;;13.13;2.78;;;5.30;88.00;;;;;;5076574;28;20028;-38
2021/12/01 22:42:55;;;;;;;8.95;2.85;;;5.30;87.70;;;;;;5076940;28;20020;-38
2021/12/01 22:45:22;;;;;;;10.95;3.33;;;5.30;87.70;;;;;;5076278;28;20031;-39
2021/12/01 22:47:52;;;;;;;9.48;2.85;;;5.30;87.50;;;;;;5076137;28;20021;-39
2021/12/01 22:50:19;;;;;;;8.67;2.43;;;5.30;87.40;;;;;;5076249;28;20028;-38
2021/12/01 22:52:45;;;;;;;10.73;3.35;;;5.30;87.40;;;;;;5076483;28;20051;-39
2021/12/01 22:55:11;;;;;;;22.65;4.70;;;5.30;87.70;;;;;;5076253;28;20512;-38
2021/12/01 22:57:45;;;;;;;7.57;2.95;;;5.20;87.70;;;;;;5076022;28;20128;-39
